AFR8U LFPG-KJFK
Flight info
| Callsign | AFR8U |
|---|---|
| Flight time | N/A |
| Altitude | 34000 |
| Route | ELCOB UT300 SENLO DCT JSY DCT LIZAD DCT LULOX DCT LIMRI/M083F360 NATE JOOPY/N0471F360 N328A TUSKY DCT PLYMM PARCH4 |
| Aircraft | B77W/H-SDE1E2E3FGHIJ2J3J4J5M1RWXY/LB1D1 |
Departure
| Time | 2026-05-01 14:37 |
|---|---|
| Airport | Charles de Gaulle International Airport (LFPG) |
Arrival
| Time | N/A |
|---|---|
| Airport | John F. Kennedy International Airport (KJFK) |
| Time | Latitude | Longitude | Altitude | Speed | Heading |
|---|---|---|---|---|---|
| 2026-05-01 13:31 | 49.00394 | 2.58989 | 359 ft | 0 kts | 84° |
| 2026-05-01 13:38 | 49.00394 | 2.58988 | 359 ft | 0 kts | 84° |
| 2026-05-01 13:51 | 49.00394 | 2.58989 | 359 ft | 0 kts | 84° |
| 2026-05-01 14:22 | 49.00393 | 2.58975 | 359 ft | 4 kts | 84° |
| 2026-05-01 14:22 | 49.00391 | 2.58940 | 359 ft | 2 kts | 84° |
| 2026-05-01 14:23 | 49.00389 | 2.58903 | 359 ft | 4 kts | 93° |
| 2026-05-01 14:23 | 49.00393 | 2.58870 | 359 ft | 4 kts | 123° |
| 2026-05-01 14:23 | 49.00397 | 2.58859 | 359 ft | 3 kts | 174° |
| 2026-05-01 14:23 | 49.00423 | 2.58855 | 367 ft | 4 kts | 175° |
| 2026-05-01 14:24 | 49.00434 | 2.58854 | 359 ft | 0 kts | 175° |
| 2026-05-01 14:28 | 49.00432 | 2.58854 | 359 ft | 2 kts | 175° |
| 2026-05-01 14:28 | 49.00369 | 2.58862 | 359 ft | 17 kts | 175° |
| 2026-05-01 14:28 | 49.00212 | 2.58881 | 364 ft | 24 kts | 175° |
| 2026-05-01 14:28 | 49.00065 | 2.58879 | 366 ft | 19 kts | 211° |
| 2026-05-01 14:29 | 49.00032 | 2.58686 | 362 ft | 19 kts | 266° |
| 2026-05-01 14:29 | 49.00021 | 2.58471 | 359 ft | 22 kts | 265° |
| 2026-05-01 14:30 | 48.99983 | 2.57746 | 361 ft | 23 kts | 265° |
| 2026-05-01 14:30 | 48.99970 | 2.57503 | 359 ft | 23 kts | 265° |
| 2026-05-01 14:30 | 48.99957 | 2.57259 | 361 ft | 23 kts | 265° |
| 2026-05-01 14:31 | 48.99931 | 2.56774 | 359 ft | 23 kts | 265° |
| 2026-05-01 14:31 | 48.99918 | 2.56531 | 363 ft | 23 kts | 265° |
| 2026-05-01 14:31 | 48.99904 | 2.56288 | 363 ft | 23 kts | 265° |
| 2026-05-01 14:31 | 48.99892 | 2.56045 | 359 ft | 23 kts | 266° |
| 2026-05-01 14:32 | 48.99894 | 2.55835 | 359 ft | 9 kts | 249° |
| 2026-05-01 14:32 | 48.99852 | 2.55801 | 366 ft | 7 kts | 182° |
| 2026-05-01 14:32 | 48.99789 | 2.55804 | 366 ft | 10 kts | 176° |
| 2026-05-01 14:32 | 48.99722 | 2.55812 | 363 ft | 8 kts | 175° |
| 2026-05-01 14:33 | 48.99718 | 2.55812 | 359 ft | 0 kts | 175° |
| 2026-05-01 14:34 | 48.99658 | 2.55819 | 358 ft | 13 kts | 176° |
| 2026-05-01 14:34 | 48.99607 | 2.55865 | 358 ft | 7 kts | 104° |
| 2026-05-01 14:34 | 48.99606 | 2.55940 | 358 ft | 7 kts | 87° |
| 2026-05-01 14:35 | 48.99607 | 2.55954 | 358 ft | 0 kts | 85° |
| 2026-05-01 14:36 | 48.99613 | 2.56080 | 359 ft | 41 kts | 85° |
| 2026-05-01 14:36 | 48.99658 | 2.56901 | 365 ft | 113 kts | 85° |
| 2026-05-01 14:36 | 48.99739 | 2.58423 | 360 ft | 172 kts | 85° |
| 2026-05-01 14:36 | 48.99841 | 2.60421 | 612 ft | 194 kts | 85° |
| 2026-05-01 14:37 | 48.99933 | 2.62496 | 1201 ft | 200 kts | 84° |
| 2026-05-01 14:37 | 49.00037 | 2.64618 | 1922 ft | 198 kts | 86° |
| 2026-05-01 14:37 | 49.00159 | 2.66772 | 2425 ft | 215 kts | 84° |
| 2026-05-01 14:37 | 49.00291 | 2.69168 | 2676 ft | 240 kts | 84° |
| 2026-05-01 14:38 | 49.00434 | 2.71764 | 3254 ft | 248 kts | 84° |
| 2026-05-01 14:38 | 49.00578 | 2.74421 | 4059 ft | 253 kts | 85° |
| 2026-05-01 14:38 | 49.00714 | 2.77131 | 4785 ft | 260 kts | 87° |
| 2026-05-01 14:38 | 49.00644 | 2.79895 | 5415 ft | 265 kts | 99° |
| 2026-05-01 14:39 | 49.00318 | 2.82686 | 6122 ft | 269 kts | 104° |
| 2026-05-01 14:39 | 48.99561 | 2.85235 | 6632 ft | 273 kts | 134° |
| 2026-05-01 14:39 | 48.97968 | 2.86754 | 7307 ft | 273 kts | 167° |
| 2026-05-01 14:39 | 48.96083 | 2.86892 | 8016 ft | 274 kts | 191° |
| 2026-05-01 14:40 | 48.94303 | 2.85836 | 8696 ft | 279 kts | 215° |
| 2026-05-01 14:40 | 48.92957 | 2.83737 | 9292 ft | 283 kts | 238° |
| 2026-05-01 14:40 | 48.92082 | 2.81037 | 9862 ft | 288 kts | 252° |
| 2026-05-01 14:40 | 48.91902 | 2.77980 | 10404 ft | 296 kts | 272° |
| 2026-05-01 14:41 | 48.92138 | 2.74774 | 10649 ft | 317 kts | 277° |
| 2026-05-01 14:41 | 48.92494 | 2.71341 | 10859 ft | 341 kts | 277° |
| 2026-05-01 14:41 | 48.92880 | 2.67658 | 11039 ft | 364 kts | 277° |
| 2026-05-01 14:41 | 48.93262 | 2.63763 | 11439 ft | 380 kts | 276° |
| 2026-05-01 14:42 | 48.93627 | 2.59730 | 12101 ft | 389 kts | 276° |
| 2026-05-01 14:42 | 48.93974 | 2.55611 | 12952 ft | 394 kts | 275° |
| 2026-05-01 14:42 | 48.94303 | 2.51458 | 13833 ft | 398 kts | 274° |
| 2026-05-01 14:42 | 48.94625 | 2.47244 | 14676 ft | 403 kts | 274° |
| 2026-05-01 14:43 | 48.94947 | 2.42972 | 15483 ft | 409 kts | 274° |
| 2026-05-01 14:43 | 48.95265 | 2.38646 | 16278 ft | 413 kts | 274° |
| 2026-05-01 14:43 | 48.95582 | 2.34278 | 17039 ft | 419 kts | 274° |
| 2026-05-01 14:43 | 48.95902 | 2.29851 | 17788 ft | 424 kts | 274° |
| 2026-05-01 14:44 | 48.96224 | 2.25372 | 18522 ft | 428 kts | 274° |
| 2026-05-01 14:44 | 48.96873 | 2.16263 | 19930 ft | 438 kts | 273° |
| 2026-05-01 14:44 | 48.97202 | 2.11623 | 20579 ft | 443 kts | 273° |
| 2026-05-01 14:45 | 48.97534 | 2.06933 | 21212 ft | 448 kts | 273° |
| 2026-05-01 14:45 | 48.98200 | 1.97426 | 22486 ft | 456 kts | 273° |
| 2026-05-01 14:45 | 48.98535 | 1.92602 | 23053 ft | 461 kts | 273° |
| 2026-05-01 14:46 | 48.98868 | 1.87778 | 23602 ft | 465 kts | 273° |
| 2026-05-01 14:46 | 48.99543 | 1.77907 | 24721 ft | 473 kts | 272° |
| 2026-05-01 14:46 | 48.99881 | 1.72903 | 25252 ft | 476 kts | 272° |
| 2026-05-01 14:47 | 49.00220 | 1.67861 | 25754 ft | 480 kts | 272° |
| 2026-05-01 14:47 | 49.00559 | 1.62783 | 26247 ft | 483 kts | 272° |
| 2026-05-01 14:47 | 49.00899 | 1.57673 | 26729 ft | 486 kts | 272° |
| 2026-05-01 14:48 | 49.01579 | 1.47338 | 27630 ft | 493 kts | 272° |
| 2026-05-01 14:48 | 49.01915 | 1.42185 | 28034 ft | 496 kts | 272° |
| 2026-05-01 14:48 | 49.02596 | 1.31610 | 28830 ft | 501 kts | 272° |
| 2026-05-01 14:49 | 49.03266 | 1.21043 | 29550 ft | 506 kts | 272° |
| 2026-05-01 14:49 | 49.03680 | 1.10367 | 30467 ft | 503 kts | 269° |
| 2026-05-01 14:50 | 49.03846 | 1.03278 | 31188 ft | 498 kts | 269° |
| 2026-05-01 14:50 | 49.04190 | 0.89284 | 32424 ft | 493 kts | 269° |
| 2026-05-01 14:51 | 49.04331 | 0.84069 | 32846 ft | 491 kts | 269° |
| 2026-05-01 14:51 | 49.04619 | 0.73704 | 33668 ft | 488 kts | 269° |
| 2026-05-01 14:52 | 49.04900 | 0.63377 | 34215 ft | 488 kts | 269° |
| 2026-05-01 14:52 | 49.05034 | 0.58268 | 34193 ft | 489 kts | 269° |
| 2026-05-01 14:53 | 49.05427 | 0.42820 | 34193 ft | 483 kts | 269° |
| 2026-05-01 14:53 | 49.05674 | 0.32568 | 34203 ft | 483 kts | 269° |
| 2026-05-01 14:54 | 49.05913 | 0.22338 | 34208 ft | 483 kts | 269° |
| 2026-05-01 14:54 | 49.06142 | 0.12139 | 34212 ft | 484 kts | 269° |
| 2026-05-01 14:55 | 49.06363 | 0.01867 | 34216 ft | 485 kts | 269° |
| 2026-05-01 14:55 | 49.06575 | -0.08420 | 34205 ft | 484 kts | 270° |
| 2026-05-01 14:56 | 49.06778 | -0.18528 | 34180 ft | 469 kts | 271° |
| 2026-05-01 14:56 | 49.06966 | -0.28450 | 34194 ft | 469 kts | 270° |
| 2026-05-01 14:57 | 49.07146 | -0.38429 | 34186 ft | 471 kts | 270° |
| 2026-05-01 14:57 | 49.07406 | -0.53459 | 34185 ft | 473 kts | 270° |
| 2026-05-01 14:58 | 49.07572 | -0.63441 | 34192 ft | 473 kts | 270° |
| 2026-05-01 14:58 | 49.07722 | -0.73504 | 34185 ft | 474 kts | 270° |
| 2026-05-01 14:59 | 49.07867 | -0.83558 | 34185 ft | 474 kts | 270° |
| 2026-05-01 14:59 | 49.08005 | -0.93628 | 34194 ft | 474 kts | 270° |
| 2026-05-01 15:00 | 49.08198 | -1.08715 | 34191 ft | 474 kts | 270° |
| 2026-05-01 15:01 | 49.08540 | -1.18677 | 34207 ft | 474 kts | 277° |
| 2026-05-01 15:01 | 49.09958 | -1.28514 | 34209 ft | 475 kts | 283° |
| 2026-05-01 15:02 | 49.11597 | -1.38291 | 34204 ft | 475 kts | 283° |
| 2026-05-01 15:02 | 49.13194 | -1.48070 | 34200 ft | 475 kts | 282° |
| 2026-05-01 15:03 | 49.14765 | -1.57889 | 34209 ft | 475 kts | 282° |
| 2026-05-01 15:03 | 49.16323 | -1.67714 | 34206 ft | 476 kts | 282° |
| 2026-05-01 15:04 | 49.17874 | -1.77542 | 34223 ft | 476 kts | 282° |
| 2026-05-01 15:04 | 49.19421 | -1.87400 | 34208 ft | 477 kts | 282° |
| 2026-05-01 15:05 | 49.20962 | -1.97263 | 34214 ft | 477 kts | 282° |
| 2026-05-01 15:05 | 49.22508 | -2.07150 | 34228 ft | 478 kts | 282° |
| 2026-05-01 15:06 | 49.24184 | -2.17004 | 34206 ft | 479 kts | 283° |
| 2026-05-01 15:06 | 49.25890 | -2.26790 | 34223 ft | 479 kts | 283° |
| 2026-05-01 15:07 | 49.27581 | -2.36640 | 34207 ft | 478 kts | 283° |
| 2026-05-01 15:07 | 49.29252 | -2.46507 | 34207 ft | 478 kts | 283° |
| 2026-05-01 15:08 | 49.30911 | -2.56376 | 34208 ft | 478 kts | 282° |
| 2026-05-01 15:08 | 49.32558 | -2.66237 | 34215 ft | 478 kts | 282° |
| 2026-05-01 15:09 | 49.34197 | -2.76109 | 34209 ft | 478 kts | 282° |
| 2026-05-01 15:09 | 49.35556 | -2.84316 | 34207 ft | 477 kts | 282° |
| 2026-05-01 15:10 | 49.37176 | -2.94172 | 34213 ft | 477 kts | 282° |
| 2026-05-01 15:10 | 49.39850 | -3.10585 | 34208 ft | 476 kts | 282° |
| 2026-05-01 15:11 | 49.41988 | -3.23796 | 34225 ft | 477 kts | 282° |
| 2026-05-01 15:12 | 49.43578 | -3.33689 | 34214 ft | 477 kts | 281° |
| 2026-05-01 15:12 | 49.45931 | -3.48462 | 34208 ft | 477 kts | 281° |
| 2026-05-01 15:14 | 49.49840 | -3.73286 | 34205 ft | 478 kts | 281° |
| 2026-05-01 15:14 | 49.52162 | -3.88209 | 34205 ft | 478 kts | 281° |
| 2026-05-01 15:15 | 49.55220 | -4.08076 | 34194 ft | 470 kts | 279° |
| 2026-05-01 15:16 | 49.58179 | -4.27567 | 34198 ft | 470 kts | 279° |
| 2026-05-01 15:18 | 49.63266 | -4.51716 | 34193 ft | 475 kts | 286° |
| 2026-05-01 15:19 | 49.67702 | -4.70960 | 34187 ft | 476 kts | 285° |
| 2026-05-01 15:19 | 49.70953 | -4.85354 | 34184 ft | 475 kts | 285° |
| 2026-05-01 15:20 | 49.74206 | -4.99830 | 34185 ft | 475 kts | 284° |
| 2026-05-01 15:21 | 49.76367 | -5.09498 | 34185 ft | 475 kts | 284° |
| 2026-05-01 15:21 | 49.78523 | -5.19189 | 34186 ft | 477 kts | 284° |
| 2026-05-01 15:22 | 49.81733 | -5.33720 | 34183 ft | 478 kts | 284° |
| 2026-05-01 15:22 | 49.83879 | -5.43484 | 34185 ft | 480 kts | 284° |
| 2026-05-01 15:23 | 49.86025 | -5.53292 | 34186 ft | 482 kts | 283° |
| 2026-05-01 15:23 | 49.88174 | -5.63160 | 34186 ft | 484 kts | 283° |
| 2026-05-01 15:24 | 49.90326 | -5.73092 | 34186 ft | 486 kts | 283° |
| 2026-05-01 15:24 | 49.92473 | -5.83042 | 34184 ft | 486 kts | 283° |
| 2026-05-01 15:25 | 49.94598 | -5.92949 | 34183 ft | 486 kts | 283° |
| 2026-05-01 15:25 | 49.96732 | -6.02936 | 34182 ft | 486 kts | 283° |
| 2026-05-01 15:26 | 49.98849 | -6.12894 | 34186 ft | 485 kts | 283° |
| 2026-05-01 15:26 | 50.00960 | -6.22881 | 34185 ft | 485 kts | 283° |
| 2026-05-01 15:27 | 50.03043 | -6.32789 | 34184 ft | 485 kts | 283° |
| 2026-05-01 15:28 | 50.06176 | -6.47762 | 34184 ft | 485 kts | 283° |
| 2026-05-01 15:28 | 50.08254 | -6.57758 | 34186 ft | 485 kts | 282° |
| 2026-05-01 15:29 | 50.11356 | -6.72772 | 34183 ft | 485 kts | 282° |
| 2026-05-01 15:30 | 50.15446 | -6.92757 | 34185 ft | 485 kts | 282° |
| 2026-05-01 15:31 | 50.21527 | -7.22835 | 34177 ft | 484 kts | 282° |
| 2026-05-01 15:32 | 50.25532 | -7.42906 | 34177 ft | 484 kts | 282° |
| 2026-05-01 15:34 | 50.31450 | -7.72948 | 34165 ft | 481 kts | 281° |